sensor_id;sensor_type;location;lat;lon;timestamp;P1;durP1;ratioP1;P2;durP2;ratioP2
26082;SDS011;13848;49.018;12.078;2023-11-21T00:01:47;5.65;;;2.63;;
26082;SDS011;13848;49.018;12.078;2023-11-21T00:04:13;11.50;;;3.00;;
26082;SDS011;13848;49.018;12.078;2023-11-21T00:06:39;6.35;;;2.53;;
26082;SDS011;13848;49.018;12.078;2023-11-21T00:09:05;12.23;;;3.42;;
26082;SDS011;13848;49.018;12.078;2023-11-21T00:11:31;7.90;;;2.95;;
26082;SDS011;13848;49.018;12.078;2023-11-21T00:13:57;7.20;;;3.08;;
26082;SDS011;13848;49.018;12.078;2023-11-21T00:16:23;4.63;;;2.65;;
26082;SDS011;13848;49.018;12.078;2023-11-21T00:18:50;8.70;;;2.90;;
26082;SDS011;13848;49.018;12.078;2023-11-21T00:21:16;7.40;;;3.13;;
26082;SDS011;13848;49.018;12.078;2023-11-21T00:23:42;6.35;;;3.03;;
26082;SDS011;13848;49.018;12.078;2023-11-21T00:26:08;10.23;;;3.10;;
26082;SDS011;13848;49.018;12.078;2023-11-21T00:28:34;7.43;;;3.45;;
26082;SDS011;13848;49.018;12.078;2023-11-21T00:31:00;4.53;;;3.00;;
26082;SDS011;13848;49.018;12.078;2023-11-21T00:33:26;6.32;;;2.60;;
26082;SDS011;13848;49.018;12.078;2023-11-21T00:35:53;8.50;;;3.17;;
26082;SDS011;13848;49.018;12.078;2023-11-21T00:38:19;11.40;;;3.38;;
26082;SDS011;13848;49.018;12.078;2023-11-21T00:40:45;5.18;;;2.58;;
26082;SDS011;13848;49.018;12.078;2023-11-21T00:43:11;8.18;;;2.72;;
26082;SDS011;13848;49.018;12.078;2023-11-21T00:45:37;4.20;;;2.55;;
26082;SDS011;13848;49.018;12.078;2023-11-21T00:48:03;6.20;;;2.47;;
26082;SDS011;13848;49.018;12.078;2023-11-21T00:50:29;7.55;;;3.08;;
26082;SDS011;13848;49.018;12.078;2023-11-21T00:52:57;8.98;;;3.00;;
26082;SDS011;13848;49.018;12.078;2023-11-21T00:55:23;7.53;;;2.90;;
26082;SDS011;13848;49.018;12.078;2023-11-21T00:57:49;8.98;;;2.80;;
26082;SDS011;13848;49.018;12.078;2023-11-21T01:00:15;10.07;;;3.03;;
26082;SDS011;13848;49.018;12.078;2023-11-21T01:02:42;8.95;;;2.97;;
26082;SDS011;13848;49.018;12.078;2023-11-21T01:05:09;7.38;;;2.72;;
26082;SDS011;13848;49.018;12.078;2023-11-21T01:07:35;8.45;;;3.20;;
26082;SDS011;13848;49.018;12.078;2023-11-21T01:10:02;6.90;;;2.75;;
26082;SDS011;13848;49.018;12.078;2023-11-21T01:12:29;10.63;;;3.03;;
26082;SDS011;13848;49.018;12.078;2023-11-21T01:14:54;6.65;;;2.80;;
26082;SDS011;13848;49.018;12.078;2023-11-21T01:17:20;5.97;;;2.88;;
26082;SDS011;13848;49.018;12.078;2023-11-21T01:19:46;5.80;;;3.20;;
26082;SDS011;13848;49.018;12.078;2023-11-21T01:22:12;12.50;;;3.00;;
26082;SDS011;13848;49.018;12.078;2023-11-21T01:24:38;5.93;;;2.67;;
26082;SDS011;13848;49.018;12.078;2023-11-21T01:27:06;5.85;;;2.97;;
26082;SDS011;13848;49.018;12.078;2023-11-21T01:29:32;7.28;;;2.97;;
26082;SDS011;13848;49.018;12.078;2023-11-21T01:31:57;8.25;;;3.10;;
26082;SDS011;13848;49.018;12.078;2023-11-21T01:34:23;6.20;;;3.30;;
26082;SDS011;13848;49.018;12.078;2023-11-21T01:36:49;6.50;;;2.88;;
26082;SDS011;13848;49.018;12.078;2023-11-21T01:39:15;7.88;;;3.22;;
26082;SDS011;13848;49.018;12.078;2023-11-21T01:41:41;7.30;;;2.97;;
26082;SDS011;13848;49.018;12.078;2023-11-21T01:44:08;5.47;;;2.67;;
26082;SDS011;13848;49.018;12.078;2023-11-21T01:46:34;7.32;;;2.40;;
26082;SDS011;13848;49.018;12.078;2023-11-21T01:49:01;3.78;;;2.20;;
26082;SDS011;13848;49.018;12.078;2023-11-21T01:51:27;5.00;;;2.30;;
26082;SDS011;13848;49.018;12.078;2023-11-21T01:53:53;4.28;;;2.33;;
26082;SDS011;13848;49.018;12.078;2023-11-21T01:56:19;4.13;;;2.33;;
26082;SDS011;13848;49.018;12.078;2023-11-21T01:58:45;5.72;;;2.10;;
26082;SDS011;13848;49.018;12.078;2023-11-21T02:01:13;5.72;;;2.15;;
26082;SDS011;13848;49.018;12.078;2023-11-21T02:03:39;5.10;;;2.10;;
26082;SDS011;13848;49.018;12.078;2023-11-21T02:06:05;5.65;;;2.10;;
26082;SDS011;13848;49.018;12.078;2023-11-21T02:08:31;5.10;;;1.75;;
26082;SDS011;13848;49.018;12.078;2023-11-21T02:10:57;4.30;;;1.70;;
26082;SDS011;13848;49.018;12.078;2023-11-21T02:13:23;4.55;;;2.00;;
26082;SDS011;13848;49.018;12.078;2023-11-21T02:15:49;5.05;;;2.22;;
26082;SDS011;13848;49.018;12.078;2023-11-21T02:18:16;5.88;;;2.10;;
26082;SDS011;13848;49.018;12.078;2023-11-21T02:20:42;4.65;;;2.20;;
26082;SDS011;13848;49.018;12.078;2023-11-21T02:23:10;4.00;;;2.10;;
26082;SDS011;13848;49.018;12.078;2023-11-21T02:25:36;6.40;;;2.03;;
26082;SDS011;13848;49.018;12.078;2023-11-21T02:28:02;6.07;;;2.30;;
26082;SDS011;13848;49.018;12.078;2023-11-21T02:30:29;6.78;;;2.05;;
26082;SDS011;13848;49.018;12.078;2023-11-21T02:32:55;8.00;;;2.28;;
26082;SDS011;13848;49.018;12.078;2023-11-21T02:35:21;4.25;;;1.70;;
26082;SDS011;13848;49.018;12.078;2023-11-21T02:37:47;5.07;;;1.70;;
26082;SDS011;13848;49.018;12.078;2023-11-21T02:40:15;7.57;;;1.90;;
26082;SDS011;13848;49.018;12.078;2023-11-21T02:42:41;5.35;;;1.80;;
26082;SDS011;13848;49.018;12.078;2023-11-21T02:45:07;4.25;;;1.80;;
26082;SDS011;13848;49.018;12.078;2023-11-21T02:47:34;6.07;;;2.00;;
26082;SDS011;13848;49.018;12.078;2023-11-21T02:50:00;4.22;;;2.10;;
26082;SDS011;13848;49.018;12.078;2023-11-21T02:52:26;5.53;;;2.10;;
26082;SDS011;13848;49.018;12.078;2023-11-21T02:54:52;3.88;;;1.85;;
26082;SDS011;13848;49.018;12.078;2023-11-21T02:57:19;8.88;;;2.15;;
26082;SDS011;13848;49.018;12.078;2023-11-21T02:59:45;3.88;;;1.90;;
26082;SDS011;13848;49.018;12.078;2023-11-21T03:02:11;5.30;;;1.80;;
26082;SDS011;13848;49.018;12.078;2023-11-21T03:04:37;2.90;;;1.73;;
26082;SDS011;13848;49.018;12.078;2023-11-21T03:07:03;4.95;;;1.70;;
26082;SDS011;13848;49.018;12.078;2023-11-21T03:09:29;3.72;;;1.88;;
26082;SDS011;13848;49.018;12.078;2023-11-21T03:11:54;4.05;;;1.85;;
26082;SDS011;13848;49.018;12.078;2023-11-21T03:14:22;7.07;;;1.60;;
26082;SDS011;13848;49.018;12.078;2023-11-21T03:16:48;4.32;;;2.03;;
26082;SDS011;13848;49.018;12.078;2023-11-21T03:19:14;5.80;;;1.73;;
26082;SDS011;13848;49.018;12.078;2023-11-21T03:21:40;4.63;;;1.85;;
26082;SDS011;13848;49.018;12.078;2023-11-21T03:24:06;9.32;;;1.95;;
26082;SDS011;13848;49.018;12.078;2023-11-21T03:26:32;6.35;;;2.03;;
26082;SDS011;13848;49.018;12.078;2023-11-21T03:28:59;3.10;;;1.92;;
26082;SDS011;13848;49.018;12.078;2023-11-21T03:31:26;7.55;;;1.92;;
26082;SDS011;13848;49.018;12.078;2023-11-21T03:33:52;3.47;;;1.65;;
26082;SDS011;13848;49.018;12.078;2023-11-21T03:36:18;5.20;;;1.77;;
26082;SDS011;13848;49.018;12.078;2023-11-21T03:38:44;4.72;;;1.77;;
26082;SDS011;13848;49.018;12.078;2023-11-21T03:41:09;4.95;;;1.90;;
26082;SDS011;13848;49.018;12.078;2023-11-21T03:43:35;4.50;;;1.70;;
26082;SDS011;13848;49.018;12.078;2023-11-21T03:46:01;4.43;;;1.80;;
26082;SDS011;13848;49.018;12.078;2023-11-21T03:48:29;2.95;;;1.67;;
26082;SDS011;13848;49.018;12.078;2023-11-21T03:50:55;1.80;;;1.35;;
26082;SDS011;13848;49.018;12.078;2023-11-21T03:53:21;5.57;;;2.20;;
26082;SDS011;13848;49.018;12.078;2023-11-21T03:55:47;4.38;;;1.88;;
26082;SDS011;13848;49.018;12.078;2023-11-21T03:58:12;3.83;;;2.05;;
26082;SDS011;13848;49.018;12.078;2023-11-21T04:00:38;5.55;;;1.63;;
26082;SDS011;13848;49.018;12.078;2023-11-21T04:03:04;6.88;;;1.83;;
26082;SDS011;13848;49.018;12.078;2023-11-21T04:05:32;5.68;;;2.03;;
26082;SDS011;13848;49.018;12.078;2023-11-21T04:07:58;6.00;;;1.80;;
26082;SDS011;13848;49.018;12.078;2023-11-21T04:10:23;3.90;;;1.70;;
26082;SDS011;13848;49.018;12.078;2023-11-21T04:12:49;4.45;;;2.30;;
26082;SDS011;13848;49.018;12.078;2023-11-21T04:15:15;4.63;;;2.22;;
26082;SDS011;13848;49.018;12.078;2023-11-21T04:17:41;4.97;;;1.98;;
26082;SDS011;13848;49.018;12.078;2023-11-21T04:20:08;5.57;;;2.17;;
26082;SDS011;13848;49.018;12.078;2023-11-21T04:22:37;4.03;;;1.95;;
26082;SDS011;13848;49.018;12.078;2023-11-21T04:25:03;7.00;;;2.42;;
26082;SDS011;13848;49.018;12.078;2023-11-21T04:27:29;6.93;;;2.92;;
26082;SDS011;13848;49.018;12.078;2023-11-21T04:29:55;5.22;;;2.60;;
26082;SDS011;13848;49.018;12.078;2023-11-21T04:32:21;8.07;;;3.10;;
26082;SDS011;13848;49.018;12.078;2023-11-21T04:34:47;8.00;;;3.15;;
26082;SDS011;13848;49.018;12.078;2023-11-21T04:37:13;7.93;;;3.25;;
26082;SDS011;13848;49.018;12.078;2023-11-21T04:39:41;12.88;;;3.92;;
26082;SDS011;13848;49.018;12.078;2023-11-21T04:42:06;8.45;;;3.70;;
26082;SDS011;13848;49.018;12.078;2023-11-21T04:44:32;7.30;;;3.47;;
26082;SDS011;13848;49.018;12.078;2023-11-21T04:46:58;6.55;;;3.55;;
26082;SDS011;13848;49.018;12.078;2023-11-21T04:49:24;6.40;;;3.70;;
26082;SDS011;13848;49.018;12.078;2023-11-21T04:51:50;7.20;;;3.75;;
26082;SDS011;13848;49.018;12.078;2023-11-21T04:54:17;9.48;;;3.95;;
26082;SDS011;13848;49.018;12.078;2023-11-21T04:56:44;7.93;;;3.67;;
26082;SDS011;13848;49.018;12.078;2023-11-21T04:59:10;8.15;;;3.78;;
26082;SDS011;13848;49.018;12.078;2023-11-21T05:01:36;6.72;;;3.38;;
26082;SDS011;13848;49.018;12.078;2023-11-21T05:04:02;9.10;;;3.40;;
26082;SDS011;13848;49.018;12.078;2023-11-21T05:06:28;11.13;;;3.85;;
26082;SDS011;13848;49.018;12.078;2023-11-21T05:08:54;6.55;;;3.70;;
26082;SDS011;13848;49.018;12.078;2023-11-21T05:11:23;6.05;;;3.17;;
26082;SDS011;13848;49.018;12.078;2023-11-21T05:13:51;6.20;;;3.42;;
26082;SDS011;13848;49.018;12.078;2023-11-21T05:16:17;9.13;;;3.75;;
26082;SDS011;13848;49.018;12.078;2023-11-21T05:18:43;6.70;;;3.97;;
26082;SDS011;13848;49.018;12.078;2023-11-21T05:21:09;6.35;;;3.60;;
26082;SDS011;13848;49.018;12.078;2023-11-21T05:23:35;6.78;;;3.78;;
26082;SDS011;13848;49.018;12.078;2023-11-21T05:26:00;8.13;;;3.42;;
26082;SDS011;13848;49.018;12.078;2023-11-21T05:28:26;9.00;;;4.13;;
26082;SDS011;13848;49.018;12.078;2023-11-21T05:30:54;7.78;;;3.90;;
26082;SDS011;13848;49.018;12.078;2023-11-21T05:33:20;8.10;;;3.83;;
26082;SDS011;13848;49.018;12.078;2023-11-21T05:35:46;6.63;;;3.63;;
26082;SDS011;13848;49.018;12.078;2023-11-21T05:38:12;5.75;;;3.53;;
26082;SDS011;13848;49.018;12.078;2023-11-21T05:40:38;8.40;;;3.22;;
26082;SDS011;13848;49.018;12.078;2023-11-21T05:43:03;5.13;;;3.15;;
26082;SDS011;13848;49.018;12.078;2023-11-21T05:45:29;7.75;;;3.50;;
26082;SDS011;13848;49.018;12.078;2023-11-21T05:47:58;7.20;;;4.20;;
26082;SDS011;13848;49.018;12.078;2023-11-21T05:50:24;6.55;;;3.92;;
26082;SDS011;13848;49.018;12.078;2023-11-21T05:52:50;12.13;;;4.28;;
26082;SDS011;13848;49.018;12.078;2023-11-21T05:55:16;12.35;;;5.20;;
26082;SDS011;13848;49.018;12.078;2023-11-21T05:57:42;6.78;;;4.28;;
26082;SDS011;13848;49.018;12.078;2023-11-21T06:00:09;5.85;;;4.13;;
26082;SDS011;13848;49.018;12.078;2023-11-21T06:02:37;17.85;;;8.57;;
26082;SDS011;13848;49.018;12.078;2023-11-21T06:05:05;12.32;;;5.40;;
26082;SDS011;13848;49.018;12.078;2023-11-21T06:07:32;11.57;;;5.68;;
26082;SDS011;13848;49.018;12.078;2023-11-21T06:09:57;9.50;;;5.05;;
26082;SDS011;13848;49.018;12.078;2023-11-21T06:12:23;7.47;;;4.53;;
26082;SDS011;13848;49.018;12.078;2023-11-21T06:14:49;8.70;;;4.10;;
26082;SDS011;13848;49.018;12.078;2023-11-21T06:17:15;11.00;;;4.68;;
26082;SDS011;13848;49.018;12.078;2023-11-21T06:19:41;6.70;;;4.05;;
26082;SDS011;13848;49.018;12.078;2023-11-21T06:22:08;11.00;;;4.70;;
26082;SDS011;13848;49.018;12.078;2023-11-21T06:24:34;11.07;;;5.00;;
26082;SDS011;13848;49.018;12.078;2023-11-21T06:27:00;7.82;;;4.28;;
26082;SDS011;13848;49.018;12.078;2023-11-21T06:29:29;9.25;;;4.35;;
26082;SDS011;13848;49.018;12.078;2023-11-21T06:31:55;7.82;;;4.40;;
26082;SDS011;13848;49.018;12.078;2023-11-21T06:34:20;10.98;;;4.78;;
26082;SDS011;13848;49.018;12.078;2023-11-21T06:36:46;9.98;;;4.93;;
26082;SDS011;13848;49.018;12.078;2023-11-21T06:39:14;11.57;;;4.80;;
26082;SDS011;13848;49.018;12.078;2023-11-21T06:41:40;10.57;;;4.68;;
26082;SDS011;13848;49.018;12.078;2023-11-21T06:44:06;11.45;;;4.80;;
26082;SDS011;13848;49.018;12.078;2023-11-21T06:46:32;9.20;;;4.65;;
26082;SDS011;13848;49.018;12.078;2023-11-21T06:48:58;15.65;;;4.80;;
26082;SDS011;13848;49.018;12.078;2023-11-21T06:51:26;9.25;;;4.63;;
26082;SDS011;13848;49.018;12.078;2023-11-21T06:53:52;8.02;;;4.72;;
26082;SDS011;13848;49.018;12.078;2023-11-21T06:56:19;10.43;;;5.70;;
26082;SDS011;13848;49.018;12.078;2023-11-21T06:58:45;10.13;;;4.88;;
26082;SDS011;13848;49.018;12.078;2023-11-21T07:01:12;7.88;;;4.93;;
26082;SDS011;13848;49.018;12.078;2023-11-21T07:03:38;8.07;;;4.78;;
26082;SDS011;13848;49.018;12.078;2023-11-21T07:06:07;7.40;;;4.95;;
26082;SDS011;13848;49.018;12.078;2023-11-21T07:08:33;12.35;;;5.07;;
26082;SDS011;13848;49.018;12.078;2023-11-21T07:10:59;7.88;;;4.78;;
26082;SDS011;13848;49.018;12.078;2023-11-21T07:13:27;8.38;;;4.50;;
26082;SDS011;13848;49.018;12.078;2023-11-21T07:15:53;7.47;;;4.97;;
26082;SDS011;13848;49.018;12.078;2023-11-21T07:18:19;9.60;;;5.20;;
26082;SDS011;13848;49.018;12.078;2023-11-21T07:20:44;10.90;;;5.40;;
26082;SDS011;13848;49.018;12.078;2023-11-21T07:23:10;14.23;;;8.98;;
26082;SDS011;13848;49.018;12.078;2023-11-21T07:25:36;13.65;;;8.80;;
26082;SDS011;13848;49.018;12.078;2023-11-21T07:28:02;11.82;;;7.10;;
26082;SDS011;13848;49.018;12.078;2023-11-21T07:30:30;11.60;;;5.15;;
26082;SDS011;13848;49.018;12.078;2023-11-21T07:32:56;14.07;;;8.07;;
26082;SDS011;13848;49.018;12.078;2023-11-21T07:35:22;10.77;;;5.63;;
26082;SDS011;13848;49.018;12.078;2023-11-21T07:37:48;10.80;;;5.22;;
26082;SDS011;13848;49.018;12.078;2023-11-21T07:40:14;14.80;;;6.20;;
26082;SDS011;13848;49.018;12.078;2023-11-21T07:42:40;11.05;;;6.80;;
26082;SDS011;13848;49.018;12.078;2023-11-21T07:45:07;7.57;;;4.78;;
26082;SDS011;13848;49.018;12.078;2023-11-21T07:47:35;11.45;;;5.80;;
26082;SDS011;13848;49.018;12.078;2023-11-21T07:50:01;10.20;;;5.30;;
26082;SDS011;13848;49.018;12.078;2023-11-21T07:52:27;8.82;;;5.25;;
26082;SDS011;13848;49.018;12.078;2023-11-21T07:54:54;11.95;;;5.50;;
26082;SDS011;13848;49.018;12.078;2023-11-21T07:57:19;9.13;;;4.93;;
26082;SDS011;13848;49.018;12.078;2023-11-21T07:59:45;8.65;;;4.97;;
26082;SDS011;13848;49.018;12.078;2023-11-21T08:02:11;14.15;;;7.55;;
26082;SDS011;13848;49.018;12.078;2023-11-21T08:04:39;20.67;;;10.30;;
26082;SDS011;13848;49.018;12.078;2023-11-21T08:07:05;11.30;;;6.35;;
26082;SDS011;13848;49.018;12.078;2023-11-21T08:09:31;9.85;;;5.47;;
26082;SDS011;13848;49.018;12.078;2023-11-21T08:11:57;16.10;;;7.63;;
26082;SDS011;13848;49.018;12.078;2023-11-21T08:14:23;8.93;;;5.50;;
26082;SDS011;13848;49.018;12.078;2023-11-21T08:16:48;12.00;;;6.10;;
26082;SDS011;13848;49.018;12.078;2023-11-21T08:19:14;10.40;;;6.18;;
26082;SDS011;13848;49.018;12.078;2023-11-21T08:21:42;7.97;;;4.57;;
26082;SDS011;13848;49.018;12.078;2023-11-21T08:24:08;8.80;;;5.10;;
26082;SDS011;13848;49.018;12.078;2023-11-21T08:26:34;10.60;;;5.15;;
26082;SDS011;13848;49.018;12.078;2023-11-21T08:29:00;11.45;;;5.78;;
26082;SDS011;13848;49.018;12.078;2023-11-21T08:31:26;9.05;;;4.85;;
26082;SDS011;13848;49.018;12.078;2023-11-21T08:33:52;9.40;;;4.03;;
26082;SDS011;13848;49.018;12.078;2023-11-21T08:36:18;5.15;;;3.00;;
26082;SDS011;13848;49.018;12.078;2023-11-21T08:38:45;5.60;;;2.97;;
26082;SDS011;13848;49.018;12.078;2023-11-21T08:41:11;4.47;;;3.28;;
26082;SDS011;13848;49.018;12.078;2023-11-21T08:43:37;8.98;;;3.47;;
26082;SDS011;13848;49.018;12.078;2023-11-21T08:46:03;7.40;;;3.28;;
26082;SDS011;13848;49.018;12.078;2023-11-21T08:48:30;5.82;;;3.22;;
26082;SDS011;13848;49.018;12.078;2023-11-21T08:50:55;4.38;;;3.00;;
26082;SDS011;13848;49.018;12.078;2023-11-21T08:53:21;6.05;;;3.10;;
26082;SDS011;13848;49.018;12.078;2023-11-21T08:55:49;4.93;;;2.65;;
26082;SDS011;13848;49.018;12.078;2023-11-21T08:58:15;5.90;;;3.35;;
26082;SDS011;13848;49.018;12.078;2023-11-21T09:00:41;3.80;;;3.22;;
26082;SDS011;13848;49.018;12.078;2023-11-21T09:03:07;4.70;;;3.20;;
26082;SDS011;13848;49.018;12.078;2023-11-21T09:05:32;6.45;;;3.42;;
26082;SDS011;13848;49.018;12.078;2023-11-21T09:07:58;5.13;;;3.17;;
26082;SDS011;13848;49.018;12.078;2023-11-21T09:10:24;6.15;;;3.15;;
26082;SDS011;13848;49.018;12.078;2023-11-21T09:12:52;5.45;;;3.10;;
26082;SDS011;13848;49.018;12.078;2023-11-21T09:15:18;4.93;;;3.33;;
26082;SDS011;13848;49.018;12.078;2023-11-21T09:17:44;9.60;;;3.80;;
26082;SDS011;13848;49.018;12.078;2023-11-21T09:20:10;6.35;;;3.25;;
26082;SDS011;13848;49.018;12.078;2023-11-21T09:22:36;7.35;;;3.85;;
26082;SDS011;13848;49.018;12.078;2023-11-21T09:25:02;6.72;;;4.00;;
26082;SDS011;13848;49.018;12.078;2023-11-21T09:27:28;4.78;;;3.47;;
26082;SDS011;13848;49.018;12.078;2023-11-21T09:29:56;5.78;;;3.22;;
26082;SDS011;13848;49.018;12.078;2023-11-21T09:32:22;8.48;;;4.45;;
26082;SDS011;13848;49.018;12.078;2023-11-21T09:34:48;9.20;;;4.47;;
26082;SDS011;13848;49.018;12.078;2023-11-21T09:37:14;14.13;;;5.30;;
26082;SDS011;13848;49.018;12.078;2023-11-21T09:39:40;6.55;;;3.33;;
26082;SDS011;13848;49.018;12.078;2023-11-21T09:42:08;3.95;;;3.03;;
26082;SDS011;13848;49.018;12.078;2023-11-21T09:44:51;3.75;;;2.60;;
26082;SDS011;13848;49.018;12.078;2023-11-21T09:47:25;6.65;;;2.85;;
26082;SDS011;13848;49.018;12.078;2023-11-21T09:49:51;4.10;;;2.63;;
26082;SDS011;13848;49.018;12.078;2023-11-21T09:52:22;5.47;;;2.78;;
26082;SDS011;13848;49.018;12.078;2023-11-21T09:54:50;10.20;;;5.88;;
26082;SDS011;13848;49.018;12.078;2023-11-21T09:57:18;4.50;;;2.50;;
26082;SDS011;13848;49.018;12.078;2023-11-21T09:59:45;3.17;;;2.25;;
26082;SDS011;13848;49.018;12.078;2023-11-21T10:02:12;3.75;;;2.17;;
26082;SDS011;13848;49.018;12.078;2023-11-21T10:04:40;3.67;;;2.30;;
26082;SDS011;13848;49.018;12.078;2023-11-21T10:07:06;5.05;;;2.22;;
26082;SDS011;13848;49.018;12.078;2023-11-21T10:09:33;3.35;;;1.80;;
26082;SDS011;13848;49.018;12.078;2023-11-21T10:11:59;2.65;;;1.92;;
26082;SDS011;13848;49.018;12.078;2023-11-21T10:14:26;3.55;;;2.00;;
26082;SDS011;13848;49.018;12.078;2023-11-21T10:16:52;4.78;;;2.00;;
26082;SDS011;13848;49.018;12.078;2023-11-21T10:19:19;4.30;;;2.45;;
26082;SDS011;13848;49.018;12.078;2023-11-21T10:21:48;2.50;;;2.03;;
26082;SDS011;13848;49.018;12.078;2023-11-21T10:24:14;5.03;;;2.80;;
26082;SDS011;13848;49.018;12.078;2023-11-21T10:26:40;4.65;;;2.75;;
26082;SDS011;13848;49.018;12.078;2023-11-21T10:29:06;4.25;;;2.70;;
26082;SDS011;13848;49.018;12.078;2023-11-21T10:31:32;4.25;;;2.60;;
26082;SDS011;13848;49.018;12.078;2023-11-21T10:34:11;4.15;;;2.35;;
26082;SDS011;13848;49.018;12.078;2023-11-21T10:36:38;3.92;;;2.25;;
26082;SDS011;13848;49.018;12.078;2023-11-21T10:39:05;3.70;;;2.22;;
26082;SDS011;13848;49.018;12.078;2023-11-21T10:41:31;3.10;;;2.33;;
26082;SDS011;13848;49.018;12.078;2023-11-21T10:43:57;3.13;;;2.53;;
26082;SDS011;13848;49.018;12.078;2023-11-21T10:46:23;4.65;;;2.45;;
26082;SDS011;13848;49.018;12.078;2023-11-21T10:48:51;4.10;;;2.95;;
26082;SDS011;13848;49.018;12.078;2023-11-21T10:51:18;3.47;;;2.80;;
26082;SDS011;13848;49.018;12.078;2023-11-21T10:53:44;4.07;;;2.25;;
26082;SDS011;13848;49.018;12.078;2023-11-21T10:56:12;2.83;;;2.20;;
26082;SDS011;13848;49.018;12.078;2023-11-21T10:58:40;5.60;;;2.30;;
26082;SDS011;13848;49.018;12.078;2023-11-21T11:01:06;3.58;;;2.42;;
26082;SDS011;13848;49.018;12.078;2023-11-21T11:03:32;3.10;;;2.10;;
26082;SDS011;13848;49.018;12.078;2023-11-21T11:06:01;2.33;;;1.90;;
26082;SDS011;13848;49.018;12.078;2023-11-21T11:08:28;3.40;;;2.00;;
26082;SDS011;13848;49.018;12.078;2023-11-21T11:10:55;2.80;;;1.95;;
26082;SDS011;13848;49.018;12.078;2023-11-21T11:13:22;2.97;;;2.08;;
26082;SDS011;13848;49.018;12.078;2023-11-21T11:15:48;3.08;;;1.80;;
26082;SDS011;13848;49.018;12.078;2023-11-21T11:18:15;3.75;;;2.13;;
26082;SDS011;13848;49.018;12.078;2023-11-21T11:20:42;3.40;;;1.73;;
26082;SDS011;13848;49.018;12.078;2023-11-21T11:23:13;3.85;;;2.13;;
26082;SDS011;13848;49.018;12.078;2023-11-21T11:26:00;3.10;;;2.00;;
26082;SDS011;13848;49.018;12.078;2023-11-21T11:28:38;4.72;;;2.10;;
26082;SDS011;13848;49.018;12.078;2023-11-21T11:31:14;2.45;;;1.80;;
26082;SDS011;13848;49.018;12.078;2023-11-21T11:33:48;3.30;;;1.88;;
26082;SDS011;13848;49.018;12.078;2023-11-21T11:36:21;3.05;;;2.00;;
26082;SDS011;13848;49.018;12.078;2023-11-21T11:38:51;3.72;;;1.85;;
26082;SDS011;13848;49.018;12.078;2023-11-21T11:41:24;2.92;;;1.92;;
26082;SDS011;13848;49.018;12.078;2023-11-21T11:43:52;4.93;;;1.90;;
26082;SDS011;13848;49.018;12.078;2023-11-21T11:46:18;7.78;;;4.50;;
26082;SDS011;13848;49.018;12.078;2023-11-21T11:48:44;5.95;;;4.30;;
26082;SDS011;13848;49.018;12.078;2023-11-21T11:51:10;8.35;;;5.07;;
26082;SDS011;13848;49.018;12.078;2023-11-21T11:53:38;12.80;;;7.30;;
26082;SDS011;13848;49.018;12.078;2023-11-21T11:56:24;8.25;;;4.65;;
26082;SDS011;13848;49.018;12.078;2023-11-21T11:58:53;5.72;;;3.20;;
26082;SDS011;13848;49.018;12.078;2023-11-21T12:01:21;4.45;;;2.75;;
26082;SDS011;13848;49.018;12.078;2023-11-21T12:06:47;6.45;;;2.83;;
26082;SDS011;13848;49.018;12.078;2023-11-21T12:09:17;3.50;;;2.10;;
26082;SDS011;13848;49.018;12.078;2023-11-21T12:11:43;3.65;;;2.15;;
26082;SDS011;13848;49.018;12.078;2023-11-21T12:14:11;4.47;;;2.20;;
26082;SDS011;13848;49.018;12.078;2023-11-21T12:16:38;4.80;;;2.30;;
26082;SDS011;13848;49.018;12.078;2023-11-21T12:19:04;5.35;;;2.25;;
26082;SDS011;13848;49.018;12.078;2023-11-21T12:21:30;4.75;;;2.25;;
26082;SDS011;13848;49.018;12.078;2023-11-21T12:23:57;4.00;;;2.30;;
26082;SDS011;13848;49.018;12.078;2023-11-21T12:26:23;5.13;;;2.83;;
26082;SDS011;13848;49.018;12.078;2023-11-21T12:28:51;3.38;;;2.20;;
26082;SDS011;13848;49.018;12.078;2023-11-21T12:31:19;2.28;;;2.03;;
26082;SDS011;13848;49.018;12.078;2023-11-21T12:33:45;3.22;;;2.42;;
26082;SDS011;13848;49.018;12.078;2023-11-21T12:36:11;5.97;;;2.22;;
26082;SDS011;13848;49.018;12.078;2023-11-21T12:38:37;4.28;;;2.53;;
26082;SDS011;13848;49.018;12.078;2023-11-21T12:41:03;9.93;;;2.63;;
26082;SDS011;13848;49.018;12.078;2023-11-21T12:43:30;3.55;;;2.40;;
26082;SDS011;13848;49.018;12.078;2023-11-21T12:46:04;4.90;;;2.50;;
26082;SDS011;13848;49.018;12.078;2023-11-21T12:48:32;3.75;;;2.22;;
26082;SDS011;13848;49.018;12.078;2023-11-21T12:50:58;6.50;;;2.13;;
26082;SDS011;13848;49.018;12.078;2023-11-21T12:53:24;2.58;;;2.05;;
26082;SDS011;13848;49.018;12.078;2023-11-21T12:55:51;2.15;;;1.73;;
26082;SDS011;13848;49.018;12.078;2023-11-21T12:58:17;2.72;;;1.90;;
26082;SDS011;13848;49.018;12.078;2023-11-21T13:00:44;2.35;;;1.70;;
26082;SDS011;13848;49.018;12.078;2023-11-21T13:03:11;3.65;;;1.98;;
26082;SDS011;13848;49.018;12.078;2023-11-21T13:05:40;3.20;;;1.73;;
26082;SDS011;13848;49.018;12.078;2023-11-21T13:08:06;2.40;;;1.80;;
26082;SDS011;13848;49.018;12.078;2023-11-21T13:10:33;3.60;;;1.98;;
26082;SDS011;13848;49.018;12.078;2023-11-21T13:13:00;2.65;;;1.77;;
26082;SDS011;13848;49.018;12.078;2023-11-21T13:15:27;4.68;;;1.90;;
26082;SDS011;13848;49.018;12.078;2023-11-21T13:17:53;3.22;;;1.70;;
26082;SDS011;13848;49.018;12.078;2023-11-21T13:20:19;4.22;;;2.00;;
26082;SDS011;13848;49.018;12.078;2023-11-21T13:22:47;2.03;;;1.80;;
26082;SDS011;13848;49.018;12.078;2023-11-21T13:25:14;2.88;;;1.90;;
26082;SDS011;13848;49.018;12.078;2023-11-21T13:27:40;2.28;;;1.73;;
26082;SDS011;13848;49.018;12.078;2023-11-21T13:30:07;1.63;;;1.52;;
26082;SDS011;13848;49.018;12.078;2023-11-21T13:32:33;2.40;;;1.60;;
26082;SDS011;13848;49.018;12.078;2023-11-21T13:34:59;2.30;;;1.67;;
26082;SDS011;13848;49.018;12.078;2023-11-21T13:37:25;2.28;;;1.80;;
26082;SDS011;13848;49.018;12.078;2023-11-21T13:39:53;5.65;;;1.80;;
26082;SDS011;13848;49.018;12.078;2023-11-21T13:42:19;2.92;;;1.73;;
26082;SDS011;13848;49.018;12.078;2023-11-21T13:44:45;3.67;;;2.00;;
26082;SDS011;13848;49.018;12.078;2023-11-21T13:47:10;8.07;;;2.20;;
26082;SDS011;13848;49.018;12.078;2023-11-21T13:49:36;2.63;;;1.70;;
26082;SDS011;13848;49.018;12.078;2023-11-21T13:52:03;3.17;;;1.70;;
26082;SDS011;13848;49.018;12.078;2023-11-21T13:54:29;2.17;;;1.73;;
26082;SDS011;13848;49.018;12.078;2023-11-21T13:56:56;3.90;;;1.70;;
26082;SDS011;13848;49.018;12.078;2023-11-21T13:59:22;3.10;;;1.85;;
26082;SDS011;13848;49.018;12.078;2023-11-21T14:01:48;3.92;;;1.88;;
26082;SDS011;13848;49.018;12.078;2023-11-21T14:04:14;3.35;;;1.80;;
26082;SDS011;13848;49.018;12.078;2023-11-21T14:06:40;3.22;;;1.98;;
26082;SDS011;13848;49.018;12.078;2023-11-21T14:09:06;1.98;;;1.67;;
26082;SDS011;13848;49.018;12.078;2023-11-21T14:11:32;3.55;;;2.13;;
26082;SDS011;13848;49.018;12.078;2023-11-21T14:13:59;3.38;;;2.10;;
26082;SDS011;13848;49.018;12.078;2023-11-21T14:16:25;3.53;;;2.03;;
26082;SDS011;13848;49.018;12.078;2023-11-21T14:18:51;6.75;;;1.65;;
26082;SDS011;13848;49.018;12.078;2023-11-21T14:21:17;3.92;;;1.85;;
26082;SDS011;13848;49.018;12.078;2023-11-21T14:23:43;2.13;;;1.70;;
26082;SDS011;13848;49.018;12.078;2023-11-21T14:26:09;2.63;;;1.80;;
26082;SDS011;13848;49.018;12.078;2023-11-21T14:28:35;3.03;;;1.73;;
26082;SDS011;13848;49.018;12.078;2023-11-21T14:31:02;1.90;;;1.50;;
26082;SDS011;13848;49.018;12.078;2023-11-21T14:33:28;5.05;;;2.65;;